Main page
METAR-TAF:

METAR-TAF

Airports :

City of Derry Airport

Derry, Northern Ireland

latitude: 55-03N, longitude: 007-09W, elevation: 9 m

Current weather observation

The report was made 32 minutes ago, at 17:20 UTC
Wind 13 kt from the South/Southwest
Temperature 11°C
Humidity 82%
Pressure 1010 hPa
Visibility 10 km or more
Few clouds at a height of 1700 ft
Scattered clouds at a height of 3000 ft

METAR: EGAE 151720Z 21013KT 9999 FEW017 SCT030 11/08 Q1010

Time: 17:52 (17:52 UTC)

Forecast

The report was made 48 minutes ago, at 17:04 UTC
Forecast valid from 15 at 18 UTC to 15 at 22 UTC
Wind 12 kt from the South/Southwest
Visibility 10 km or more
Few clouds at a height of 1200 ft
Scattered clouds at a height of 3000 ft

TAF: EGAE 151704Z 1518/1522 20012KT 9999 FEW012 SCT030

Weather observations and forecasts of more than 4000 airports (METAR and TAF reports).

The available stations are represented by yellow and red dots on the map.

Hover mouse over dot to see the name of the station.

Then click to see weather observations and forecasts.

To change the map : click on the green buttons with a black cross to zoom in, on the green button with a dash to zoom out, or on the green arrows for adjacent maps.


METAR-TAF: